Time;durP1;ratioP1;P1;durP2;ratioP2;P2;SDS_P1;SDS_P2;PMS_P1;PMS_P2;Temp;Humidity;BMP_temperature;BMP_pressure;BME280_temperature;BME280_humidity;BME280_pressure;Samples;Min_cycle;Max_cycle;Signal;HPM_P1;HPM_P2
2021/07/18 03:30:52;;;;;;;17.77;13.57;;;;;;;20.32;63.32;99139.59;8134268;23;20618;-83
2021/07/18 03:34:14;;;;;;;15.43;13.63;;;;;;;20.54;63.82;99178.69;6886181;28;20208;-83
2021/07/18 03:37:35;;;;;;;16.23;13.83;;;;;;;20.63;63.71;99174.41;6896768;28;20219;-82
2021/07/18 03:40:57;;;;;;;17.23;14.47;;;;;;;20.93;63.36;99185.66;6890376;28;20236;-84
2021/07/18 03:44:19;;;;;;;14.33;12.80;;;;;;;21.12;62.58;99197.84;6874717;28;20221;-84
2021/07/18 03:47:42;;;;;;;15.33;12.73;;;;;;;21.02;61.46;99193.13;6872130;28;20209;-83
2021/07/18 03:51:04;;;;;;;15.87;14.20;;;;;;;20.13;61.92;99193.91;6871320;28;20236;-84
2021/07/18 03:54:25;;;;;;;15.90;13.30;;;;;;;20.52;62.38;99186.38;6872982;28;20228;-84
2021/07/18 03:57:47;;;;;;;17.13;13.10;;;;;;;20.47;62.80;99159.75;6872117;28;20224;-85
2021/07/18 04:01:11;;;;;;;14.13;12.27;;;;;;;20.78;62.06;99181.66;6871114;28;20285;-84
2021/07/18 04:04:34;;;;;;;13.73;12.10;;;;;;;20.65;62.12;99192.25;6876432;28;20201;-84
2021/07/18 04:07:56;;;;;;;13.57;11.97;;;;;;;20.71;61.18;99182.97;6879044;28;20220;-84
2021/07/18 04:11:18;;;;;;;15.07;11.27;;;;;;;20.74;60.74;99193.41;6871819;28;20318;-85
2021/07/18 04:14:45;;;;;;;18.30;13.03;;;;;;;20.09;63.25;99186.44;6875754;28;20690;-84
2021/07/18 04:18:08;;;;;;;16.90;12.83;;;;;;;20.13;63.37;99188.44;6885222;28;20553;-83
2021/07/18 04:21:31;;;;;;;19.40;12.50;;;;;;;20.15;63.80;99178.03;6868055;28;20732;-85
2021/07/18 04:24:53;;;;;;;12.87;10.73;;;;;;;20.76;61.42;99179.44;6866904;28;20736;-85
2021/07/18 04:28:15;;;;;;;14.47;11.33;;;;;;;20.82;60.70;99205.81;6865476;28;20665;-85
2021/07/18 04:31:36;;;;;;;12.53;11.27;;;;;;;20.63;60.48;99196.34;6866047;28;20273;-85
2021/07/18 04:34:58;;;;;;;12.67;11.37;;;;;;;20.60;61.07;99197.69;6866419;28;20210;-85
2021/07/18 04:38:21;;;;;;;15.13;12.10;;;;;;;20.42;61.85;99210.91;6866606;28;20240;-84
2021/07/18 04:41:42;;;;;;;12.80;11.10;;;;;;;20.57;61.57;99198.19;6866269;28;20228;-85
2021/07/18 04:45:05;;;;;;;13.30;12.00;;;;;;;20.44;62.25;99209.56;6866722;28;20219;-84
2021/07/18 04:48:27;;;;;;;16.07;12.37;;;;;;;20.38;62.95;99194.16;6866400;28;20593;-84
2021/07/18 04:51:48;;;;;;;13.87;11.80;;;;;;;20.48;63.00;99199.75;6866583;28;20260;-85
2021/07/18 04:55:12;;;;;;;16.97;10.63;;;;;;;21.12;62.13;99190.47;6866610;28;20235;-85
2021/07/18 04:58:34;;;;;;;14.00;9.27;;;;;;;21.63;60.68;99212.47;6866088;28;20210;-84
2021/07/18 05:01:56;;;;;;;12.60;10.00;;;;;;;21.90;58.99;99218.66;6865933;28;20593;-84
2021/07/18 05:05:19;;;;;;;10.83;9.20;;;;;;;22.02;59.03;99202.78;6865538;28;20221;-85
2021/07/18 05:08:41;;;;;;;11.90;9.07;;;;;;;22.29;58.31;99214.41;6883506;28;20213;-84
2021/07/18 05:12:05;;;;;;;16.40;9.50;;;;;;;22.23;58.27;99217.41;6871255;28;20232;-85
2021/07/18 05:15:27;;;;;;;9.97;8.37;;;;;;;22.15;59.06;99201.47;6867111;28;20221;-86
2021/07/18 05:18:49;;;;;;;10.53;9.27;;;;;;;22.27;59.27;99211.13;6867109;28;20217;-85
2021/07/18 05:22:12;;;;;;;9.30;8.37;;;;;;;22.46;58.75;99217.78;6866648;28;20605;-85
2021/07/18 05:25:34;;;;;;;12.10;9.40;;;;;;;22.78;57.90;99217.56;6866200;28;20709;-85
2021/07/18 05:28:57;;;;;;;9.50;7.90;;;;;;;22.80;57.24;99152.13;6865014;28;20215;-83
2021/07/18 05:32:18;;;;;;;9.53;7.47;;;;;;;23.27;55.81;99211.28;6865524;28;20237;-84
2021/07/18 05:35:40;;;;;;;8.73;6.70;;;;;;;23.41;54.37;99195.00;6866497;28;20217;-85
2021/07/18 05:39:02;;;;;;;6.93;6.20;;;;;;;23.87;53.19;99207.53;6845003;28;20671;-84
2021/07/18 05:42:23;;;;;;;9.87;6.00;;;;;;;24.10;51.93;99205.00;6862574;28;20237;-85
2021/07/18 05:45:46;;;;;;;7.87;6.30;;;;;;;23.61;52.81;99223.31;6871539;28;20211;-85
2021/07/18 05:49:08;;;;;;;9.80;6.17;;;;;;;23.56;52.89;99211.50;6870149;28;20201;-83
2021/07/18 05:52:29;;;;;;;8.60;5.47;;;;;;;24.10;52.42;99202.25;6870271;28;20240;-86
2021/07/18 05:55:51;;;;;;;8.53;5.73;;;;;;;24.06;51.75;99219.63;6870003;28;20252;-85
2021/07/18 05:59:13;;;;;;;9.00;5.77;;;;;;;24.30;50.88;99213.16;6845064;28;20672;-86
2021/07/18 06:02:36;;;;;;;9.60;5.43;;;;;;;24.87;49.45;99218.91;6867186;28;20237;-85
2021/07/18 06:05:57;;;;;;;8.60;4.50;;;;;;;24.56;49.83;99225.69;6860134;28;20230;-85
2021/07/18 06:09:19;;;;;;;9.33;5.00;;;;;;;24.21;49.57;99222.31;6856380;28;20212;-85
2021/07/18 06:12:40;;;;;;;6.90;3.70;;;;;;;24.98;49.14;99217.72;6870892;28;20231;-86
2021/07/18 06:16:02;;;;;;;7.13;4.43;;;;;;;25.04;46.60;99224.00;6866069;28;20201;-85
2021/07/18 06:19:25;;;;;;;7.47;3.63;;;;;;;25.21;48.15;99225.25;6855117;28;20694;-85
2021/07/18 06:22:51;;;;;;;6.43;3.80;;;;;;;24.20;47.73;99218.72;6861424;28;20313;-85
2021/07/18 06:26:12;;;;;;;4.17;3.30;;;;;;;24.54;47.47;99216.88;6859030;28;20653;-87
2021/07/18 06:29:34;;;;;;;5.70;3.73;;;;;;;25.14;47.19;99216.44;6870196;28;20196;-85
2021/07/18 06:32:56;;;;;;;5.77;3.30;;;;;;;25.60;45.85;99219.66;6857336;28;20739;-87
2021/07/18 06:36:19;;;;;;;7.70;3.47;;;;;;;25.78;44.23;99224.44;6843363;29;20196;-88
2021/07/18 06:39:42;;;;;;;3.63;3.33;;;;;;;25.87;45.18;99231.78;6848990;28;20218;-88
2021/07/18 06:43:04;;;;;;;4.33;3.03;;;;;;;26.04;43.76;99201.75;6869797;28;20246;-87
2021/07/18 06:46:25;;;;;;;7.53;3.10;;;;;;;26.03;44.49;99215.84;6868948;28;20203;-87
2021/07/18 06:49:47;;;;;;;6.50;3.03;;;;;;;25.57;44.63;99223.81;6869999;28;20209;-87
2021/07/18 06:53:10;;;;;;;4.37;2.77;;;;;;;25.67;43.68;99206.31;6868930;28;20228;-87
2021/07/18 06:56:32;;;;;;;5.43;3.20;;;;;;;25.54;44.84;99220.81;6869842;28;20270;-87
2021/07/18 06:59:54;;;;;;;5.33;3.00;;;;;;;26.56;43.40;99221.00;6849391;28;20262;-87
2021/07/18 07:03:15;;;;;;;5.97;3.17;;;;;;;25.90;44.67;99231.19;6843578;28;20245;-88
2021/07/18 07:06:37;;;;;;;3.97;2.80;;;;;;;26.37;43.46;99224.81;6844320;29;20216;-86
2021/07/18 07:10:00;;;;;;;3.77;3.13;;;;;;;26.73;43.12;99235.09;6843452;29;20785;-87
2021/07/18 07:13:21;;;;;;;5.07;3.33;;;;;;;27.02;42.43;99238.53;6843540;28;20230;-87
2021/07/18 07:16:43;;;;;;;4.33;3.13;;;;;;;26.98;42.29;99239.44;6846966;28;20206;-87
2021/07/18 07:20:06;;;;;;;6.80;3.63;;;;;;;26.57;42.72;99239.22;6864592;28;20211;-88
2021/07/18 07:23:28;;;;;;;3.47;2.70;;;;;;;26.91;42.52;99239.00;6861336;28;20774;-87
2021/07/18 07:26:51;;;;;;;5.40;3.00;;;;;;;26.81;41.94;99237.22;6870467;28;20221;-85
2021/07/18 07:30:14;;;;;;;3.43;2.90;;;;;;;27.52;40.97;99234.94;6869620;28;20201;-87
2021/07/18 07:33:36;;;;;;;3.87;2.70;;;;;;;27.45;41.65;99217.91;6865983;28;20224;-87
2021/07/18 07:36:57;;;;;;;4.23;2.43;;;;;;;27.27;42.02;99238.16;6842630;29;20219;-85
2021/07/18 07:40:19;;;;;;;3.40;3.07;;;;;;;27.61;42.23;99238.63;6842487;28;20217;-87
2021/07/18 07:43:42;;;;;;;3.10;2.80;;;;;;;26.86;41.22;99223.31;6850620;28;20727;-88
2021/07/18 07:47:04;;;;;;;6.90;2.80;;;;;;;27.98;40.41;99232.97;6870817;28;20207;-87
2021/07/18 07:50:26;;;;;;;4.73;3.10;;;;;;;27.75;40.59;99227.56;6869954;28;20204;-87
2021/07/18 07:53:48;;;;;;;3.80;2.53;;;;;;;27.80;40.50;99224.75;6870451;28;20217;-88
2021/07/18 07:57:10;;;;;;;6.80;3.63;;;;;;;28.34;39.88;99225.56;6870009;28;20240;-87
2021/07/18 08:00:33;;;;;;;6.40;3.00;;;;;;;28.49;40.94;99233.56;6870947;28;20284;-88
2021/07/18 08:03:54;;;;;;;4.27;2.80;;;;;;;28.77;38.27;99226.03;6871796;28;20230;-86
2021/07/18 08:07:16;;;;;;;3.27;2.73;;;;;;;28.44;40.33;99221.78;6871384;28;20203;-87
2021/07/18 08:10:39;;;;;;;4.87;3.00;;;;;;;28.83;40.10;99217.25;6869840;28;20229;-88
2021/07/18 08:14:00;;;;;;;5.47;2.90;;;;;;;28.19;40.38;99205.66;6874236;28;20271;-90
2021/07/18 08:17:23;;;;;;;5.67;2.83;;;;;;;28.31;39.48;99200.41;6869268;28;20228;-84
2021/07/18 08:20:45;;;;;;;5.63;3.17;;;;;;;28.66;39.38;99219.88;6871269;28;20225;-89
2021/07/18 08:24:06;;;;;;;5.43;2.77;;;;;;;29.49;38.97;99197.81;6870068;28;20229;-88
2021/07/18 08:27:28;;;;;;;3.47;2.90;;;;;;;28.51;39.06;99202.75;6869059;28;20212;-88
2021/07/18 08:30:50;;;;;;;4.77;2.90;;;;;;;29.05;38.99;99181.19;6871312;28;20246;-88
2021/07/18 08:34:13;;;;;;;3.20;2.73;;;;;;;29.89;38.23;99207.84;6873910;28;20220;-87
2021/07/18 08:37:35;;;;;;;6.67;3.13;;;;;;;29.88;37.74;99199.81;6871227;28;20216;-90
2021/07/18 08:40:57;;;;;;;13.87;4.67;;;;;;;29.02;38.53;99201.25;6871927;28;20238;-93
2021/07/18 08:44:19;;;;;;;5.90;3.60;;;;;;;30.25;37.23;99177.09;6875269;28;20230;-88
2021/07/18 08:47:41;;;;;;;4.13;2.77;;;;;;;30.31;37.53;99193.28;6875722;28;20205;-89
2021/07/18 08:51:04;;;;;;;3.73;2.50;;;;;;;30.04;37.12;99150.97;6875673;28;20230;-89
2021/07/18 08:54:27;;;;;;;5.23;3.00;;;;;;;29.29;37.61;99144.72;6876350;28;20757;-88
2021/07/18 08:57:49;;;;;;;4.07;2.77;;;;;;;29.41;38.73;99190.25;6880905;28;20214;-89
2021/07/18 09:01:13;;;;;;;3.77;2.60;;;;;;;29.84;37.04;99137.69;6875262;28;20229;-88
2021/07/18 09:04:34;;;;;;;4.23;2.90;;;;;;;30.84;36.12;99193.06;6874386;28;20238;-88
2021/07/18 09:07:58;;;;;;;80.73;29.87;;;;;;;30.51;37.05;99189.91;6860671;28;20213;-89
2021/07/18 09:11:23;;;;;;;399.70;199.13;;;;;;;30.51;37.67;99169.59;6881852;28;20241;-93
2021/07/18 09:14:46;;;;;;;46.87;41.67;;;;;;;30.81;37.19;99188.13;6880062;28;20193;-90
2021/07/18 09:18:08;;;;;;;4.53;3.10;;;;;;;30.75;37.04;99187.50;6874868;28;20211;-86
2021/07/18 09:21:30;;;;;;;3.73;2.87;;;;;;;30.60;36.43;99164.84;6852840;28;20287;-87
2021/07/18 09:24:55;;;;;;;5.07;2.90;;;;;;;29.65;36.90;99170.44;6845707;29;20734;-88
2021/07/18 09:28:18;;;;;;;7.43;2.90;;;;;;;28.63;38.56;99180.81;6846073;28;20203;-88
2021/07/18 09:31:40;;;;;;;4.93;2.70;;;;;;;29.34;38.28;99172.38;6893103;23;20239;-84
2021/07/18 09:35:03;;;;;;;7.43;3.00;;;;;;;29.70;36.58;99123.06;6899543;28;20211;-84
2021/07/18 09:38:25;;;;;;;6.40;3.33;;;;;;;30.17;37.62;99155.59;6899263;28;20212;-81
2021/07/18 09:41:57;;;;;;;8.93;2.83;;;;;;;30.33;36.57;99146.50;6900458;28;20235;-86
2021/07/18 09:45:20;;;;;;;3.00;2.70;;;;;;;30.92;37.10;99162.44;6903333;28;20222;-84
2021/07/18 09:48:44;;;;;;;6.77;2.70;;;;;;;30.12;37.62;99083.44;6900064;28;20590;-85
2021/07/18 09:52:18;;;;;;;8.50;3.17;;;;;;;31.05;36.02;99158.63;6901007;28;20237;-85
2021/07/18 09:55:41;;;;;;;5.37;2.80;;;;;;;30.78;36.52;99158.16;6900649;28;20208;-85
2021/07/18 09:59:05;;;;;;;5.70;2.80;;;;;;;31.82;35.42;99148.13;6897678;28;20215;-85
2021/07/18 10:02:27;;;;;;;4.37;2.93;;;;;;;31.06;34.90;99151.91;6879874;28;20227;-85
2021/07/18 10:06:04;;;;;;;5.03;2.60;;;;;;;31.60;35.74;99144.75;6875071;28;20231;-85
2021/07/18 10:09:26;;;;;;;3.20;2.33;;;;;;;30.35;36.31;99135.84;6873519;28;20200;-85
2021/07/18 10:12:47;;;;;;;4.70;2.67;;;;;;;30.58;35.68;99154.03;6874494;28;20231;-85
2021/07/18 10:16:11;;;;;;;6.10;3.87;;;;;;;31.47;35.15;99151.34;6892470;28;20205;-84
2021/07/18 10:19:33;;;;;;;5.07;2.90;;;;;;;31.01;34.17;99127.00;6900300;28;20196;-84
2021/07/18 10:22:55;;;;;;;4.93;2.67;;;;;;;31.00;36.49;99146.81;6899904;28;20231;-84
2021/07/18 10:26:17;;;;;;;5.87;3.37;;;;;;;31.19;35.94;99139.78;6901343;28;20207;-87
2021/07/18 10:29:40;;;;;;;4.50;2.93;;;;;;;31.78;35.26;99135.19;6906048;28;20211;-86
2021/07/18 10:33:05;;;;;;;6.13;2.80;;;;;;;30.96;36.74;99138.31;6905969;28;20244;-87
2021/07/18 10:36:29;;;;;;;4.93;3.10;;;;;;;32.11;33.96;99136.97;6904509;28;20544;-85
2021/07/18 10:39:55;;;;;;;5.00;2.50;;;;;;;32.54;34.57;99117.97;6877536;28;20558;-85
2021/07/18 10:43:39;;;;;;;3.03;2.50;;;;;;;31.59;34.61;99134.72;6878993;28;20230;-85
2021/07/18 10:47:01;;;;;;;4.03;2.70;;;;;;;30.87;33.46;99120.81;6893034;28;20222;-85
2021/07/18 10:50:46;;;;;;;3.80;2.50;;;;;;;30.70;32.44;99129.19;6904691;28;20208;-84
2021/07/18 10:54:08;;;;;;;3.37;2.67;;;;;;;30.98;33.65;99124.06;6904269;28;20220;-85
2021/07/18 10:57:33;;;;;;;3.17;2.63;;;;;;;31.17;33.92;99096.66;6904444;28;20218;-85
2021/07/18 11:00:54;;;;;;;5.23;3.07;;;;;;;32.56;31.67;99114.84;6903633;28;20252;-84
2021/07/18 11:04:44;;;;;;;4.10;2.83;;;;;;;31.70;30.86;99116.47;6905192;28;20244;-85
2021/07/18 11:08:08;;;;;;;4.10;2.70;;;;;;;32.00;31.84;99093.03;6905671;28;20198;-85
2021/07/18 11:11:38;;;;;;;3.53;2.43;;;;;;;31.68;31.14;99124.38;6905437;28;20234;-85
2021/07/18 11:15:22;;;;;;;5.10;2.57;;;;;;;32.51;31.02;99112.25;6905111;28;20695;-85
2021/07/18 11:18:44;;;;;;;4.07;2.40;;;;;;;31.66;30.80;99107.97;6902735;28;20209;-85
2021/07/18 11:22:07;;;;;;;3.80;2.63;;;;;;;31.27;31.92;99122.25;6905829;28;20226;-83
2021/07/18 11:25:48;;;;;;;7.47;2.70;;;;;;;31.77;31.52;99106.47;6904016;28;20698;-85
2021/07/18 11:29:09;;;;;;;4.43;2.60;;;;;;;30.34;33.06;99130.59;6903488;28;20198;-85
2021/07/18 11:32:33;;;;;;;3.33;2.90;;;;;;;30.12;34.48;99114.88;6899710;28;20333;-85
2021/07/18 11:35:55;;;;;;;4.77;2.80;;;;;;;30.61;31.51;99105.25;6900597;28;20722;-85
2021/07/18 11:39:18;;;;;;;7.60;3.03;;;;;;;30.01;32.28;99115.47;6901799;28;20232;-85
2021/07/18 11:42:41;;;;;;;3.97;2.70;;;;;;;30.52;33.00;99116.38;6901400;28;20237;-85
2021/07/18 11:46:02;;;;;;;4.40;3.10;;;;;;;31.32;30.84;99096.16;6903293;28;20232;-85
2021/07/18 11:49:34;;;;;;;6.50;3.00;;;;;;;31.81;30.67;99098.25;6899260;28;20211;-85
2021/07/18 11:52:56;;;;;;;4.00;2.70;;;;;;;30.93;31.32;99102.78;6896917;28;20225;-84
2021/07/18 11:56:19;;;;;;;5.60;3.03;;;;;;;31.51;30.37;99090.97;6896204;28;20212;-85
2021/07/18 11:59:44;;;;;;;4.53;3.00;;;;;;;31.08;31.63;99093.09;6893256;28;20207;-84
2021/07/18 12:03:09;;;;;;;4.40;2.83;;;;;;;31.04;30.58;99090.16;6899214;28;20236;-85
2021/07/18 12:06:31;;;;;;;3.30;3.00;;;;;;;31.08;31.05;99074.38;6902620;28;20350;-85
2021/07/18 12:09:54;;;;;;;3.23;2.93;;;;;;;31.99;30.97;99064.34;6903601;28;20720;-85
2021/07/18 12:13:16;;;;;;;4.27;3.27;;;;;;;32.50;29.19;99074.31;6903082;28;20230;-85
2021/07/18 12:16:40;;;;;;;5.53;3.57;;;;;;;32.23;31.04;99070.06;6892455;28;20211;-85
2021/07/18 12:20:01;;;;;;;4.50;3.70;;;;;;;31.93;30.36;99065.69;6875302;28;20202;-84
2021/07/18 12:23:25;;;;;;;8.40;3.90;;;;;;;31.61;31.82;99068.31;6876009;28;20226;-85
2021/07/18 12:26:49;;;;;;;6.57;4.53;;;;;;;31.85;30.50;99062.97;6872327;28;20217;-86
2021/07/18 12:30:11;;;;;;;6.53;5.67;;;;;;;31.75;30.07;99069.75;6873442;28;20208;-84
2021/07/18 12:33:35;;;;;;;10.27;6.50;;;;;;;32.57;29.38;99069.00;6871620;28;20275;-81
2021/07/18 12:37:02;;;;;;;8.30;6.90;;;;;;;31.83;30.67;99060.50;6871012;28;20212;-85
2021/07/18 12:40:23;;;;;;;7.67;6.87;;;;;;;31.81;30.60;99029.34;6894530;28;20211;-84
2021/07/18 12:43:45;;;;;;;7.50;6.80;;;;;;;31.70;31.46;99064.31;6899755;28;20669;-84
2021/07/18 12:47:25;;;;;;;7.77;7.07;;;;;;;31.72;31.75;99052.88;6898848;28;20623;-84
2021/07/18 12:50:48;;;;;;;8.63;7.83;;;;;;;32.28;29.93;99043.97;6897902;28;20695;-83
2021/07/18 12:54:11;;;;;;;8.57;7.47;;;;;;;31.65;31.47;99033.84;6897928;28;20593;-82
2021/07/18 12:57:32;;;;;;;9.37;8.23;;;;;;;31.29;31.24;99035.50;6899155;28;20200;-83
2021/07/18 13:01:03;;;;;;;9.40;8.40;;;;;;;31.55;31.11;99039.78;6899597;28;20230;-84
2021/07/18 13:04:32;;;;;;;8.93;8.03;;;;;;;32.27;30.90;99037.56;6898678;28;20687;-83
2021/07/18 13:07:58;;;;;;;9.40;8.40;;;;;;;33.08;29.77;98993.84;6893449;28;20206;-83
2021/07/18 13:11:32;;;;;;;9.40;8.47;;;;;;;33.18;30.02;99015.78;6898389;28;20228;-83
2021/07/18 13:14:53;;;;;;;12.47;9.70;;;;;;;32.89;28.78;99015.97;6897226;28;20212;-84
2021/07/18 13:18:15;;;;;;;12.90;9.80;;;;;;;31.19;32.32;99036.69;6897419;28;20691;-84
2021/07/18 13:21:37;;;;;;;11.97;9.90;;;;;;;32.71;30.75;99022.03;6896264;28;20721;-84
2021/07/18 13:25:10;;;;;;;10.53;9.13;;;;;;;33.46;30.04;99018.72;6879882;28;20264;-84
2021/07/18 13:28:33;;;;;;;10.40;9.20;;;;;;;32.75;29.25;99007.06;6869346;28;20214;-84
2021/07/18 13:31:55;;;;;;;11.30;8.83;;;;;;;32.23;30.59;99030.16;6870734;28;20252;-83
2021/07/18 13:35:18;;;;;;;9.37;8.33;;;;;;;32.59;30.00;99024.78;6871367;28;20228;-84
2021/07/18 13:38:44;;;;;;;11.13;9.17;;;;;;;32.97;28.97;99017.81;6870828;28;20294;-84
2021/07/18 13:42:10;;;;;;;10.70;9.43;;;;;;;33.36;28.47;99008.03;6871266;28;20232;-84
2021/07/18 13:45:31;;;;;;;9.87;8.87;;;;;;;32.53;30.19;99015.81;6871927;28;20216;-83
2021/07/18 13:48:53;;;;;;;11.10;9.13;;;;;;;32.93;29.79;99025.28;6871496;28;20207;-83
2021/07/18 13:52:16;;;;;;;10.40;9.40;;;;;;;32.95;29.69;99017.38;6872429;28;20227;-84
2021/07/18 13:55:39;;;;;;;12.17;10.93;;;;;;;33.38;28.32;99012.09;6870317;28;20211;-83
2021/07/18 13:59:02;;;;;;;12.27;10.63;;;;;;;32.73;29.58;99008.56;6870813;28;20570;-83
2021/07/18 14:02:23;;;;;;;11.67;10.43;;;;;;;33.07;29.29;99011.78;6874094;28;20243;-84
2021/07/18 14:05:45;;;;;;;12.23;10.77;;;;;;;32.96;29.89;98987.47;6879709;28;20242;-84
2021/07/18 14:09:08;;;;;;;11.70;10.47;;;;;;;31.84;30.14;98936.63;6875825;28;20210;-83
2021/07/18 14:12:30;;;;;;;13.63;11.43;;;;;;;31.95;30.91;98998.41;6876409;28;20283;-83
2021/07/18 14:15:53;;;;;;;11.93;10.73;;;;;;;32.50;30.20;98910.41;6876057;28;20229;-83
2021/07/18 14:19:14;;;;;;;13.40;12.00;;;;;;;33.27;28.97;98980.19;6876441;28;20204;-83
2021/07/18 14:22:36;;;;;;;13.70;12.40;;;;;;;32.68;29.45;98944.53;6875269;28;20239;-83
2021/07/18 14:25:59;;;;;;;14.40;12.93;;;;;;;32.41;29.47;98984.22;6876605;28;20230;-83
2021/07/18 14:29:21;;;;;;;15.63;13.47;;;;;;;31.57;30.58;99006.00;6877205;28;20413;-83
2021/07/18 14:32:45;;;;;;;13.97;12.47;;;;;;;31.96;30.67;98991.69;6876982;28;20235;-84
2021/07/18 14:36:06;;;;;;;15.00;13.50;;;;;;;32.04;31.22;98997.19;6876808;28;20202;-82
2021/07/18 14:39:28;;;;;;;16.97;13.97;;;;;;;31.62;31.22;98989.09;6876139;28;20204;-83
2021/07/18 14:42:50;;;;;;;20.47;12.57;;;;;;;31.90;30.76;98993.03;6875405;28;20252;-84
2021/07/18 14:46:12;;;;;;;14.50;13.00;;;;;;;32.10;31.25;98970.72;6874157;28;20224;-82
2021/07/18 14:49:35;;;;;;;14.90;12.60;;;;;;;31.66;31.14;98943.44;6876214;28;20568;-82
2021/07/18 14:52:56;;;;;;;16.30;13.30;;;;;;;30.93;32.23;98896.69;6877565;28;20226;-82
2021/07/18 14:56:18;;;;;;;15.63;13.10;;;;;;;32.02;31.09;98914.97;6893220;28;20218;-82
2021/07/18 14:59:40;;;;;;;16.23;12.90;;;;;;;31.69;31.10;98906.53;6875384;28;20213;-84
2021/07/18 15:03:02;;;;;;;13.67;12.27;;;;;;;32.18;31.72;98983.75;6888791;28;20238;-85
2021/07/18 15:06:25;;;;;;;13.60;12.27;;;;;;;31.99;30.92;98902.53;6888274;28;20220;-84
2021/07/18 15:09:46;;;;;;;16.80;13.17;;;;;;;32.11;30.44;98896.16;6879166;28;20223;-84
2021/07/18 15:13:08;;;;;;;13.40;12.00;;;;;;;32.25;31.47;98953.34;6885154;28;20222;-84
2021/07/18 15:16:30;;;;;;;13.70;12.30;;;;;;;31.72;32.02;98975.59;6899666;28;20213;-84
2021/07/18 15:19:52;;;;;;;14.13;12.67;;;;;;;32.42;30.84;98966.34;6886947;28;20208;-85
2021/07/18 15:23:15;;;;;;;14.07;12.53;;;;;;;32.03;31.18;98928.59;6891610;28;20233;-84
2021/07/18 15:26:41;;;;;;;14.77;12.00;;;;;;;31.39;33.02;98885.44;6895837;28;20233;-84
2021/07/18 15:30:04;;;;;;;15.40;12.33;;;;;;;32.27;31.29;98970.59;6873492;28;20333;-84
2021/07/18 15:36:46;;;;;;;13.77;12.37;;;;;;;32.81;29.97;98929.44;6860077;23;20273;-82
2021/07/18 15:40:11;;;;;;;14.67;13.07;;;;;;;33.28;29.91;98950.22;6837650;29;20215;-82
2021/07/18 15:43:33;;;;;;;13.20;11.83;;;;;;;32.11;31.90;98890.59;6840941;28;20706;-81
2021/07/18 15:46:55;;;;;;;18.17;11.30;;;;;;;32.79;31.13;98949.34;6820967;29;20315;-81
2021/07/18 15:50:18;;;;;;;12.43;11.07;;;;;;;33.24;30.50;98944.50;6831722;28;20220;-82
2021/07/18 15:53:39;;;;;;;12.70;10.77;;;;;;;33.05;30.61;98941.47;6860119;28;20669;-81
2021/07/18 15:57:02;;;;;;;13.03;10.50;;;;;;;33.37;30.29;98945.34;6855379;28;20661;-82
2021/07/18 16:00:24;;;;;;;11.70;10.50;;;;;;;32.20;30.76;98942.38;6817211;29;20679;-81
2021/07/18 16:03:46;;;;;;;12.13;10.70;;;;;;;32.43;30.46;98954.81;6811627;29;20231;-82
2021/07/18 16:07:07;;;;;;;12.53;10.00;;;;;;;31.92;31.01;98941.31;6811258;29;20691;-81
2021/07/18 16:10:29;;;;;;;10.07;9.07;;;;;;;31.45;32.79;98947.38;6813922;29;20215;-83
2021/07/18 16:13:52;;;;;;;10.93;9.60;;;;;;;31.95;31.27;98923.91;6834720;28;20312;-82
2021/07/18 16:17:14;;;;;;;10.43;9.20;;;;;;;32.38;31.32;98940.28;6806973;28;20212;-83
2021/07/18 16:20:36;;;;;;;10.47;9.13;;;;;;;32.82;30.55;98943.06;6844669;28;20232;-83
2021/07/18 16:23:58;;;;;;;11.43;9.00;;;;;;;32.74;30.48;98934.78;6836538;28;20253;-82
2021/07/18 16:27:20;;;;;;;10.13;9.13;;;;;;;32.34;30.70;98934.56;6810318;29;20254;-83
2021/07/18 16:30:43;;;;;;;11.33;9.27;;;;;;;32.18;30.95;98939.13;6809490;29;20198;-83
2021/07/18 16:34:04;;;;;;;9.17;8.27;;;;;;;31.78;31.43;98929.59;6809974;29;20248;-83
2021/07/18 16:37:26;;;;;;;9.47;8.40;;;;;;;32.34;30.97;98939.31;6810622;29;20228;-83
2021/07/18 16:40:48;;;;;;;9.80;8.50;;;;;;;32.33;30.71;98935.72;6809429;29;20245;-82
2021/07/18 16:44:09;;;;;;;9.30;8.30;;;;;;;32.18;31.45;98933.53;6824865;28;20897;-83
2021/07/18 16:47:33;;;;;;;9.40;8.50;;;;;;;31.73;31.73;98915.06;6817548;29;20320;-84
2021/07/18 16:50:55;;;;;;;8.97;7.10;;;;;;;32.19;32.51;98921.19;6820586;29;20202;-83
2021/07/18 16:54:17;;;;;;;9.53;6.97;;;;;;;31.95;34.05;98939.84;6838999;28;20230;-82
2021/07/18 16:57:38;;;;;;;6.47;5.70;;;;;;;32.12;33.58;98942.44;6834092;29;20551;-83
2021/07/18 17:01:00;;;;;;;6.77;5.60;;;;;;;31.36;34.80;98947.44;6826832;29;20252;-82
2021/07/18 17:04:23;;;;;;;7.80;5.93;;;;;;;31.78;33.67;98924.03;6836109;28;20229;-82
2021/07/18 17:07:45;;;;;;;7.57;5.60;;;;;;;32.27;33.42;98941.84;6822221;28;20205;-82
2021/07/18 17:11:07;;;;;;;6.33;5.63;;;;;;;32.28;33.73;98944.31;6827918;29;20207;-82
2021/07/18 17:14:29;;;;;;;6.17;5.50;;;;;;;32.67;31.74;98929.75;6829753;28;20227;-84
2021/07/18 17:17:51;;;;;;;6.90;6.17;;;;;;;32.23;32.94;98929.69;6830527;29;20198;-82
2021/07/18 17:21:18;;;;;;;6.70;5.70;;;;;;;32.58;32.67;98944.97;6809159;29;20210;-82
2021/07/18 17:24:40;;;;;;;5.67;4.90;;;;;;;32.19;33.08;98935.16;6810593;29;20294;-84
2021/07/18 17:28:04;;;;;;;6.30;4.43;;;;;;;31.84;34.13;98935.81;6826173;28;20228;-82
2021/07/18 17:31:25;;;;;;;5.27;4.77;;;;;;;32.05;34.26;98944.97;6860395;28;20216;-83
2021/07/18 17:34:47;;;;;;;4.63;4.23;;;;;;;31.86;34.88;98941.84;6834638;28;20243;-82
2021/07/18 17:38:10;;;;;;;6.40;4.30;;;;;;;31.97;35.29;98943.09;6834411;28;20213;-82
2021/07/18 17:41:31;;;;;;;5.73;4.40;;;;;;;31.69;36.00;98945.56;6834818;29;20224;-82
2021/07/18 17:44:53;;;;;;;5.73;4.20;;;;;;;31.94;35.13;98925.06;6835143;28;20714;-83
2021/07/18 17:48:14;;;;;;;5.93;4.23;;;;;;;31.41;36.15;98941.66;6824656;28;20208;-82
2021/07/18 17:51:36;;;;;;;4.60;4.20;;;;;;;31.75;35.49;98949.81;6808883;29;20220;-82
2021/07/18 17:54:59;;;;;;;5.10;3.63;;;;;;;31.37;36.14;98960.19;6819932;28;20219;-83
2021/07/18 17:58:21;;;;;;;6.20;4.27;;;;;;;31.20;37.12;98940.78;6833323;29;20235;-83
2021/07/18 18:01:43;;;;;;;5.33;3.53;;;;;;;31.39;36.31;98923.66;6834803;28;20221;-82
2021/07/18 18:05:06;;;;;;;5.30;3.00;;;;;;;31.92;35.93;98946.91;6818512;28;20244;-82
2021/07/18 18:08:27;;;;;;;4.37;2.90;;;;;;;31.64;36.04;98956.94;6850592;28;20212;-82
2021/07/18 18:11:51;;;;;;;8.47;3.57;;;;;;;31.65;35.94;98936.25;6842053;28;20211;-82
2021/07/18 18:15:14;;;;;;;2.87;2.57;;;;;;;31.50;36.25;98925.72;6830449;28;20236;-83
2021/07/18 18:18:37;;;;;;;4.27;2.80;;;;;;;31.64;35.93;98958.88;6815619;29;20244;-82
2021/07/18 18:22:00;;;;;;;5.80;2.93;;;;;;;31.55;36.27;98955.34;6808232;29;20209;-82
2021/07/18 18:25:22;;;;;;;4.03;2.97;;;;;;;31.15;37.04;98935.41;6807725;29;20240;-82
2021/07/18 18:28:45;;;;;;;5.37;2.60;;;;;;;30.85;37.47;98936.50;6807760;29;20196;-82
2021/07/18 18:32:07;;;;;;;3.13;2.37;;;;;;;31.35;36.86;98954.16;6829596;29;20213;-82
2021/07/18 18:35:29;;;;;;;3.77;2.60;;;;;;;30.87;37.10;98948.16;6834095;28;20246;-82
2021/07/18 18:38:51;;;;;;;2.67;2.37;;;;;;;30.66;36.96;98908.25;6833937;28;20213;-83
2021/07/18 18:42:12;;;;;;;3.43;2.30;;;;;;;30.89;37.66;98950.59;6816585;29;20212;-82
2021/07/18 18:45:36;;;;;;;3.23;2.70;;;;;;;30.97;38.15;98953.34;6810345;29;20270;-83
2021/07/18 18:48:58;;;;;;;6.50;3.20;;;;;;;30.68;38.17;98953.28;6818617;29;20230;-84
2021/07/18 18:52:20;;;;;;;4.53;2.80;;;;;;;30.70;38.51;98959.34;6840368;28;20211;-83
2021/07/18 18:55:41;;;;;;;2.70;2.50;;;;;;;30.52;38.40;98921.53;6839914;28;20234;-84
2021/07/18 18:59:05;;;;;;;2.67;2.27;;;;;;;30.73;38.61;98928.03;6838866;29;20207;-83
2021/07/18 19:02:29;;;;;;;5.07;2.97;;;;;;;30.84;39.04;98973.06;6831758;28;20206;-83
2021/07/18 19:05:53;;;;;;;6.30;3.30;;;;;;;30.38;40.97;98971.00;6817201;29;20257;-84
2021/07/18 19:09:14;;;;;;;5.27;3.57;;;;;;;29.76;43.99;98978.03;6841011;28;20214;-83
2021/07/18 19:12:39;;;;;;;5.57;4.57;;;;;;;29.12;45.59;98978.00;6841527;29;20221;-84
2021/07/18 19:16:01;;;;;;;6.40;4.23;;;;;;;28.25;48.41;98955.59;6840909;28;20235;-83
2021/07/18 19:19:24;;;;;;;6.17;5.10;;;;;;;28.59;47.55;98980.81;6840505;29;20217;-83
2021/07/18 19:22:45;;;;;;;9.33;4.87;;;;;;;28.49;48.08;98989.41;6841265;28;20223;-85